sensor_id;sensor_type;location;lat;lon;timestamp;P1;durP1;ratioP1;P2;durP2;ratioP2
44572;SDS011;31762;45.420;10.072;2024-03-22T05:11:21;55.10;;;49.33;;
44572;SDS011;31762;45.420;10.072;2024-03-22T05:16:22;51.13;;;45.70;;
44572;SDS011;31762;45.420;10.072;2024-03-22T05:21:24;51.90;;;46.53;;
44572;SDS011;31762;45.420;10.072;2024-03-22T05:26:25;52.55;;;46.97;;
44572;SDS011;31762;45.420;10.072;2024-03-22T05:31:27;51.60;;;46.42;;
44572;SDS011;31762;45.420;10.072;2024-03-22T05:36:28;53.40;;;47.85;;
44572;SDS011;31762;45.420;10.072;2024-03-22T05:41:30;55.30;;;49.40;;
44572;SDS011;31762;45.420;10.072;2024-03-22T05:46:31;56.00;;;50.22;;
44572;SDS011;31762;45.420;10.072;2024-03-22T05:51:32;53.03;;;47.58;;
44572;SDS011;31762;45.420;10.072;2024-03-22T05:56:34;51.55;;;46.33;;
44572;SDS011;31762;45.420;10.072;2024-03-22T06:01:36;52.80;;;47.35;;
44572;SDS011;31762;45.420;10.072;2024-03-22T06:06:37;54.22;;;48.67;;
44572;SDS011;31762;45.420;10.072;2024-03-22T06:11:39;53.53;;;47.97;;
44572;SDS011;31762;45.420;10.072;2024-03-22T06:16:40;51.28;;;45.95;;
44572;SDS011;31762;45.420;10.072;2024-03-22T06:21:41;53.15;;;47.47;;
44572;SDS011;31762;45.420;10.072;2024-03-22T06:26:43;52.80;;;47.33;;
44572;SDS011;31762;45.420;10.072;2024-03-22T06:31:44;54.30;;;48.55;;
44572;SDS011;31762;45.420;10.072;2024-03-22T06:36:46;50.90;;;45.72;;
44572;SDS011;31762;45.420;10.072;2024-03-22T06:41:47;53.38;;;48.00;;
44572;SDS011;31762;45.420;10.072;2024-03-22T06:46:49;52.05;;;46.58;;
44572;SDS011;31762;45.420;10.072;2024-03-22T06:51:50;50.72;;;45.60;;
44572;SDS011;31762;45.420;10.072;2024-03-22T06:56:53;48.92;;;43.83;;
44572;SDS011;31762;45.420;10.072;2024-03-22T07:02:13;48.20;;;42.95;;
44572;SDS011;31762;45.420;10.072;2024-03-22T07:07:52;49.42;;;44.05;;
44572;SDS011;31762;45.420;10.072;2024-03-22T07:13:12;45.83;;;41.20;;
44572;SDS011;31762;45.420;10.072;2024-03-22T07:18:17;47.28;;;42.38;;
44572;SDS011;31762;45.420;10.072;2024-03-22T07:23:33;48.80;;;43.50;;
44572;SDS011;31762;45.420;10.072;2024-03-22T07:28:58;49.10;;;43.80;;
44572;SDS011;31762;45.420;10.072;2024-03-22T07:34:25;50.22;;;41.47;;
44572;SDS011;31762;45.420;10.072;2024-03-22T07:39:42;46.92;;;42.03;;
44572;SDS011;31762;45.420;10.072;2024-03-22T07:45:03;47.15;;;42.30;;
44572;SDS011;31762;45.420;10.072;2024-03-22T07:50:20;44.67;;;40.17;;
44572;SDS011;31762;45.420;10.072;2024-03-22T07:55:27;46.65;;;41.80;;
44572;SDS011;31762;45.420;10.072;2024-03-22T08:00:44;44.35;;;39.90;;
44572;SDS011;31762;45.420;10.072;2024-03-22T08:06:00;44.00;;;39.72;;
44572;SDS011;31762;45.420;10.072;2024-03-22T08:11:18;44.15;;;39.50;;
44572;SDS011;31762;45.420;10.072;2024-03-22T08:16:22;42.70;;;38.42;;
44572;SDS011;31762;45.420;10.072;2024-03-22T08:21:38;43.25;;;38.72;;
44572;SDS011;31762;45.420;10.072;2024-03-22T08:26:41;43.00;;;38.42;;
44572;SDS011;31762;45.420;10.072;2024-03-22T08:31:43;43.45;;;39.15;;
44572;SDS011;31762;45.420;10.072;2024-03-22T08:36:45;42.78;;;38.42;;
44572;SDS011;31762;45.420;10.072;2024-03-22T08:41:54;43.25;;;38.63;;
44572;SDS011;31762;45.420;10.072;2024-03-22T08:47:12;41.20;;;36.85;;
44572;SDS011;31762;45.420;10.072;2024-03-22T08:52:29;40.28;;;36.25;;
44572;SDS011;31762;45.420;10.072;2024-03-22T08:57:33;43.72;;;39.47;;
44572;SDS011;31762;45.420;10.072;2024-03-22T09:02:52;42.50;;;38.17;;
44572;SDS011;31762;45.420;10.072;2024-03-22T09:08:09;40.95;;;36.88;;
44572;SDS011;31762;45.420;10.072;2024-03-22T09:13:25;42.10;;;37.75;;
44572;SDS011;31762;45.420;10.072;2024-03-22T09:18:42;41.35;;;37.00;;
44572;SDS011;31762;45.420;10.072;2024-03-22T09:23:43;39.97;;;35.97;;
44572;SDS011;31762;45.420;10.072;2024-03-22T09:28:48;39.95;;;35.83;;
44572;SDS011;31762;45.420;10.072;2024-03-22T09:33:49;40.88;;;36.67;;
44572;SDS011;31762;45.420;10.072;2024-03-22T09:38:51;41.22;;;37.17;;
44572;SDS011;31762;45.420;10.072;2024-03-22T09:43:52;40.17;;;36.28;;
44572;SDS011;31762;45.420;10.072;2024-03-22T09:48:55;40.55;;;36.60;;
44572;SDS011;31762;45.420;10.072;2024-03-22T09:53:57;40.45;;;36.55;;
44572;SDS011;31762;45.420;10.072;2024-03-22T09:58:58;39.95;;;36.13;;
44572;SDS011;31762;45.420;10.072;2024-03-22T10:04:00;39.60;;;35.90;;
44572;SDS011;31762;45.420;10.072;2024-03-22T10:09:02;38.13;;;34.10;;
44572;SDS011;31762;45.420;10.072;2024-03-22T10:14:04;37.35;;;33.60;;
44572;SDS011;31762;45.420;10.072;2024-03-22T10:19:06;38.42;;;34.53;;
44572;SDS011;31762;45.420;10.072;2024-03-22T10:24:07;36.75;;;33.25;;
44572;SDS011;31762;45.420;10.072;2024-03-22T10:29:10;35.72;;;32.20;;
44572;SDS011;31762;45.420;10.072;2024-03-22T10:34:13;36.45;;;32.75;;
44572;SDS011;31762;45.420;10.072;2024-03-22T10:39:16;36.45;;;32.83;;
44572;SDS011;31762;45.420;10.072;2024-03-22T10:44:18;35.85;;;32.25;;
44572;SDS011;31762;45.420;10.072;2024-03-22T10:49:20;35.10;;;31.77;;
44572;SDS011;31762;45.420;10.072;2024-03-22T10:54:27;34.53;;;31.20;;
44572;SDS011;31762;45.420;10.072;2024-03-22T10:59:33;33.78;;;30.45;;
44572;SDS011;31762;45.420;10.072;2024-03-22T11:04:39;34.78;;;31.52;;
44572;SDS011;31762;45.420;10.072;2024-03-22T11:09:41;33.22;;;30.02;;
44572;SDS011;31762;45.420;10.072;2024-03-22T11:14:53;32.50;;;29.40;;
44572;SDS011;31762;45.420;10.072;2024-03-22T11:19:54;33.00;;;29.63;;
44572;SDS011;31762;45.420;10.072;2024-03-22T11:24:57;31.60;;;28.42;;
44572;SDS011;31762;45.420;10.072;2024-03-22T11:29:59;31.55;;;28.58;;
